Time;durP1;ratioP1;P1;durP2;ratioP2;P2;SDS_P1;SDS_P2;PMS_P1;PMS_P2;Temp;Humidity;BMP_temperature;BMP_pressure;BME280_temperature;BME280_humidity;BME280_pressure;Samples;Min_cycle;Max_cycle;Signal;HPM_P1;HPM_P2
2023/01/30 00:01:45;;;;;;;12.15;5.70;;;6.60;99.90;;;;;;5076927;28;20470;-65
2023/01/30 00:04:11;;;;;;;5.72;3.58;;;6.60;99.90;;;;;;5096078;28;20036;-64
2023/01/30 00:06:40;;;;;;;8.35;4.53;;;6.60;99.90;;;;;;5087941;28;20055;-65
2023/01/30 00:09:07;;;;;;;16.23;6.18;;;6.70;99.90;;;;;;5091411;27;20463;-65
2023/01/30 00:11:33;;;;;;;7.47;4.13;;;6.70;99.90;;;;;;5096939;28;20122;-65
2023/01/30 00:14:00;;;;;;;7.88;3.83;;;6.70;99.90;;;;;;5107000;28;20405;-65
2023/01/30 00:16:26;;;;;;;12.57;5.57;;;6.80;99.90;;;;;;5108248;28;20119;-65
2023/01/30 00:18:52;;;;;;;16.05;5.00;;;6.70;99.90;;;;;;5108443;28;20122;-65
2023/01/30 00:21:18;;;;;;;14.93;6.80;;;6.70;99.90;;;;;;5140475;27;20047;-64
2023/01/30 00:23:43;;;;;;;33.47;4.40;;;6.80;99.90;;;;;;5107711;28;20051;-65
2023/01/30 00:26:10;;;;;;;22.98;6.93;;;6.70;99.90;;;;;;5106939;28;20069;-64
2023/01/30 00:28:37;;;;;;;11.15;5.28;;;6.80;99.90;;;;;;5107984;28;20100;-65
2023/01/30 00:31:03;;;;;;;11.18;4.43;;;6.80;99.90;;;;;;5116092;27;20058;-65
2023/01/30 00:33:29;;;;;;;4.05;3.38;;;6.80;99.90;;;;;;5105517;28;20040;-65
2023/01/30 00:35:56;;;;;;;8.50;4.20;;;6.80;99.90;;;;;;5107223;28;20044;-65
2023/01/30 00:38:23;;;;;;;6.65;3.00;;;6.80;99.90;;;;;;5107298;28;20500;-65
2023/01/30 00:40:49;;;;;;;3.17;1.98;;;6.90;99.90;;;;;;5115711;27;20046;-65
2023/01/30 00:48:53;;;;;;;18.40;5.88;;;6.90;99.90;;;;;;5098520;28;20397;-65
2023/01/30 00:51:19;;;;;;;7.57;2.90;;;6.90;99.90;;;;;;5109583;28;20495;-65
2023/01/30 00:53:44;;;;;;;4.95;2.83;;;6.90;99.90;;;;;;5108861;28;20047;-64
2023/01/30 00:56:10;;;;;;;2.97;1.65;;;6.90;99.90;;;;;;5089316;28;20390;-65
2023/01/30 00:58:36;;;;;;;4.35;2.25;;;6.90;99.90;;;;;;5079724;27;20388;-65
2023/01/30 01:01:02;;;;;;;5.80;2.08;;;6.90;99.90;;;;;;5118788;27;20044;-65
2023/01/30 01:03:27;;;;;;;1.70;1.60;;;6.80;99.90;;;;;;5092307;28;20040;-65
2023/01/30 01:05:53;;;;;;;3.65;2.50;;;6.80;99.90;;;;;;5094127;28;20048;-65
2023/01/30 01:08:21;;;;;;;6.93;2.80;;;6.80;99.90;;;;;;5112376;27;20051;-65
2023/01/30 01:10:47;;;;;;;14.95;3.92;;;6.80;99.90;;;;;;5097610;28;20070;-65
2023/01/30 01:13:13;;;;;;;4.93;2.25;;;6.80;99.90;;;;;;5110690;28;20040;-65
2023/01/30 01:15:39;;;;;;;3.13;2.25;;;6.80;99.90;;;;;;5111569;27;20540;-65
2023/01/30 01:18:05;;;;;;;12.73;4.45;;;6.70;99.90;;;;;;5111703;27;20047;-65
2023/01/30 01:20:31;;;;;;;2.00;1.38;;;6.80;99.90;;;;;;5116407;27;20096;-64
2023/01/30 01:22:57;;;;;;;1.40;1.05;;;6.70;99.90;;;;;;5110775;27;20044;-64
2023/01/30 01:25:23;;;;;;;9.82;2.85;;;6.70;99.90;;;;;;5112500;27;20043;-64
2023/01/30 01:27:49;;;;;;;7.72;2.72;;;6.70;99.90;;;;;;5110879;28;20052;-65
2023/01/30 01:30:16;;;;;;;5.00;2.60;;;6.70;99.90;;;;;;5110442;28;20051;-64
2023/01/30 01:32:42;;;;;;;3.25;1.45;;;6.70;99.90;;;;;;5110986;28;20044;-64
2023/01/30 01:35:08;;;;;;;1.67;0.82;;;6.70;99.90;;;;;;5110817;27;20046;-64
2023/01/30 01:37:33;;;;;;;6.90;1.92;;;6.70;99.90;;;;;;5115324;27;20107;-64
2023/01/30 01:42:44;;;;;;;2.60;1.65;;;6.70;99.90;;;;;;5111783;28;20047;-64
2023/01/30 01:45:10;;;;;;;0.63;0.60;;;6.70;99.90;;;;;;5113544;27;20040;-64
2023/01/30 01:47:39;;;;;;;4.43;1.55;;;6.70;99.90;;;;;;5110145;28;20051;-64
2023/01/30 01:50:08;;;;;;;3.40;1.13;;;6.70;99.90;;;;;;5111018;28;20051;-64
2023/01/30 01:52:34;;;;;;;4.97;1.10;;;6.80;99.90;;;;;;5110185;28;20400;-64
2023/01/30 01:55:03;;;;;;;6.93;2.28;;;6.70;99.90;;;;;;5113437;27;20043;-65
2023/01/30 01:57:44;;;;;;;5.90;1.67;;;6.80;99.90;;;;;;5110940;27;20081;-64
2023/01/30 02:00:16;;;;;;;0.90;0.80;;;6.80;99.90;;;;;;5119335;27;20047;-64
2023/01/30 02:03:05;;;;;;;7.53;2.03;;;6.80;99.90;;;;;;5107474;27;20062;-64
2023/01/30 02:05:35;;;;;;;1.38;1.33;;;6.80;99.90;;;;;;5107976;28;20043;-65
2023/01/30 02:08:12;;;;;;;3.05;1.33;;;6.80;99.90;;;;;;5108268;28;20130;-65
2023/01/30 02:10:59;;;;;;;2.47;1.40;;;6.90;99.90;;;;;;5076327;28;20060;-65
2023/01/30 02:13:26;;;;;;;5.53;1.63;;;6.90;99.90;;;;;;5110453;28;20043;-65
2023/01/30 02:15:53;;;;;;;3.13;2.00;;;6.90;99.90;;;;;;5110282;28;20071;-64
2023/01/30 02:18:20;;;;;;;4.63;2.15;;;6.90;99.90;;;;;;5109491;28;20461;-65
2023/01/30 02:21:00;;;;;;;6.03;1.77;;;6.90;99.90;;;;;;5110744;27;20467;-65
2023/01/30 02:23:26;;;;;;;;;;;6.90;99.90;;;;;;5109013;27;20502;-65
2023/01/30 02:26:16;;;;;;;8.65;2.85;;;6.90;99.90;;;;;;5114775;27;19927;-65
2023/01/30 02:29:01;;;;;;;;;;;7.00;99.90;;;;;;5098726;28;20090;-65
2023/01/30 02:31:49;;;;;;;28.27;6.60;;;7.00;99.90;;;;;;5108707;28;20386;-65
2023/01/30 02:34:17;;;;;;;28.35;6.80;;;7.00;99.90;;;;;;5118869;27;20512;-65
2023/01/30 02:36:49;;;;;;;25.83;6.57;;;7.00;99.90;;;;;;5107240;28;20126;-65
2023/01/30 02:39:31;;;;;;;35.92;8.35;;;7.00;99.90;;;;;;5130484;27;20048;-65
2023/01/30 02:42:12;;;;;;;22.67;4.60;;;7.10;99.90;;;;;;5095841;28;20040;-65
2023/01/30 02:44:53;;;;;;;42.53;9.40;;;7.10;99.90;;;;;;5120532;27;20108;-65
2023/01/30 02:47:43;;;;;;;36.88;7.03;;;7.10;99.90;;;;;;5116352;27;20047;-65
2023/01/30 02:50:09;;;;;;;;;;;7.10;99.90;;;;;;5089164;28;20126;-65
2023/01/30 02:52:36;;;;;;;38.13;8.70;;;7.10;99.90;;;;;;5109562;27;20401;-65
2023/01/30 02:55:16;;;;;;;29.92;6.45;;;7.10;99.90;;;;;;5119533;27;20080;-65
2023/01/30 02:57:42;;;;;;;18.75;5.80;;;7.10;99.90;;;;;;5140060;27;20818;-65
2023/01/30 03:00:08;;;;;;;33.55;5.03;;;7.10;99.90;;;;;;5109747;28;20127;-65
2023/01/30 03:03:05;;;;;;;28.40;6.22;;;7.20;99.90;;;;;;5140727;27;20050;-65
2023/01/30 03:05:46;;;;;;;42.17;7.43;;;7.10;99.90;;;;;;5108578;27;20147;-65
2023/01/30 03:08:52;;;;;;;39.00;6.93;;;7.10;99.90;;;;;;5109526;28;20050;-65
2023/01/30 03:11:24;;;;;;;41.58;7.72;;;7.20;99.90;;;;;;5094413;28;20047;-65
2023/01/30 03:13:52;;;;;;;49.30;7.93;;;7.20;99.90;;;;;;5110536;27;20047;-65
2023/01/30 03:16:25;;;;;;;45.47;7.93;;;7.20;99.90;;;;;;5122705;27;20046;-65
2023/01/30 03:18:50;;;;;;;16.38;2.72;;;7.20;99.90;;;;;;5116683;27;20043;-65
2023/01/30 03:21:17;;;;;;;36.78;7.28;;;7.20;99.90;;;;;;5107801;28;20047;-65
2023/01/30 03:23:45;;;;;;;31.75;6.00;;;7.20;99.90;;;;;;5107748;28;20039;-65
2023/01/30 03:26:19;;;;;;;34.92;6.85;;;7.20;99.90;;;;;;5111342;27;20044;-65
2023/01/30 03:28:49;;;;;;;49.78;9.55;;;7.20;99.90;;;;;;5107846;28;20051;-65
2023/01/30 03:31:14;;;;;;;40.30;8.07;;;7.10;99.90;;;;;;5108613;28;20055;-65
2023/01/30 03:33:42;;;;;;;46.10;9.65;;;7.10;99.90;;;;;;5090113;28;20282;-65
2023/01/30 03:36:08;;;;;;;40.78;9.60;;;7.10;99.90;;;;;;5108983;27;20061;-65
2023/01/30 03:38:34;;;;;;;34.15;9.35;;;7.00;99.90;;;;;;5108336;28;20508;-65
2023/01/30 03:41:01;;;;;;;34.80;7.05;;;6.90;99.90;;;;;;5106411;28;20043;-65
2023/01/30 03:43:27;;;;;;;44.95;9.75;;;6.90;99.90;;;;;;5108774;28;20096;-65
2023/01/30 03:45:53;;;;;;;48.63;7.72;;;6.90;99.90;;;;;;5118861;27;20039;-65
2023/01/30 03:48:19;;;;;;;41.20;6.95;;;6.90;99.90;;;;;;5111799;27;20501;-65
2023/01/30 03:50:46;;;;;;;39.70;7.35;;;6.90;99.90;;;;;;5107724;28;20062;-65
2023/01/30 03:53:12;;;;;;;34.65;6.35;;;6.90;99.90;;;;;;5108301;28;20096;-65
2023/01/30 03:55:38;;;;;;;34.08;5.78;;;6.90;99.90;;;;;;5113496;27;20035;-65
2023/01/30 03:58:04;;;;;;;41.05;8.23;;;6.90;99.90;;;;;;5114685;27;20054;-65
2023/01/30 04:00:29;;;;;;;38.08;7.38;;;6.80;99.90;;;;;;5108223;28;20074;-65
2023/01/30 04:02:56;;;;;;;43.85;8.90;;;6.70;99.90;;;;;;5109659;27;20087;-65
2023/01/30 04:05:22;;;;;;;32.72;7.22;;;6.70;99.90;;;;;;5109053;27;20063;-65
2023/01/30 04:07:49;;;;;;;41.70;7.38;;;6.60;99.90;;;;;;5114865;27;20055;-66
2023/01/30 04:10:17;;;;;;;46.72;7.75;;;6.60;99.90;;;;;;5096907;28;20036;-65
2023/01/30 04:12:43;;;;;;;50.50;8.88;;;6.50;99.90;;;;;;5105183;28;20543;-65
2023/01/30 04:15:09;;;;;;;38.58;7.93;;;6.40;99.90;;;;;;5105283;27;20071;-65
2023/01/30 04:17:35;;;;;;;33.80;6.78;;;6.50;99.90;;;;;;5103684;28;20079;-65
2023/01/30 04:20:01;;;;;;;44.20;9.07;;;6.60;99.90;;;;;;5106965;28;20083;-65
2023/01/30 04:22:27;;;;;;;47.67;9.30;;;6.60;99.90;;;;;;5108115;28;20056;-65
2023/01/30 04:24:53;;;;;;;52.50;8.73;;;6.60;99.90;;;;;;5106613;27;20048;-65
2023/01/30 04:27:18;;;;;;;58.47;10.07;;;6.60;99.90;;;;;;5112271;27;20035;-65
2023/01/30 04:29:45;;;;;;;62.70;10.25;;;6.50;99.90;;;;;;5107880;27;20054;-65
2023/01/30 04:32:11;;;;;;;46.05;8.15;;;6.50;99.90;;;;;;5107074;28;20046;-65
2023/01/30 04:34:37;;;;;;;47.03;8.85;;;6.40;99.90;;;;;;5107338;28;20126;-65
2023/01/30 04:37:03;;;;;;;43.72;7.28;;;6.40;99.90;;;;;;5106628;28;20043;-65
2023/01/30 04:39:28;;;;;;;38.40;8.93;;;6.30;99.90;;;;;;5106816;28;20553;-65
2023/01/30 04:41:54;;;;;;;32.53;5.68;;;6.20;99.90;;;;;;5106680;28;20054;-65
2023/01/30 04:44:20;;;;;;;47.35;7.28;;;6.20;99.90;;;;;;5109163;28;20811;-65
2023/01/30 04:46:45;;;;;;;46.58;9.05;;;6.20;99.90;;;;;;5106191;28;20371;-65
2023/01/30 04:49:11;;;;;;;54.17;8.43;;;6.10;99.90;;;;;;5107392;28;20090;-65
2023/01/30 04:51:37;;;;;;;41.90;6.20;;;6.10;99.90;;;;;;5107694;28;20118;-65
2023/01/30 04:54:03;;;;;;;23.10;3.75;;;6.10;99.90;;;;;;5105885;28;20127;-65
2023/01/30 04:56:29;;;;;;;45.78;8.02;;;6.10;99.90;;;;;;5108963;28;20535;-65
2023/01/30 04:58:55;;;;;;;26.80;4.60;;;6.10;99.90;;;;;;5106278;28;20039;-65
2023/01/30 05:01:33;;;;;;;46.15;7.20;;;6.10;99.90;;;;;;5108093;28;20036;-65
2023/01/30 05:04:00;;;;;;;24.20;3.50;;;6.10;99.90;;;;;;5107028;28;20315;-65
2023/01/30 05:06:26;;;;;;;43.45;8.32;;;6.10;99.90;;;;;;5100509;28;20040;-65
2023/01/30 05:08:54;;;;;;;38.80;6.88;;;6.10;99.90;;;;;;5092549;28;20488;-65
2023/01/30 05:11:21;;;;;;;42.08;8.18;;;6.10;99.90;;;;;;5091022;28;20059;-65
2023/01/30 05:13:46;;;;;;;44.60;7.95;;;6.10;99.90;;;;;;5105901;28;20043;-65
2023/01/30 05:16:13;;;;;;;39.40;7.72;;;6.10;99.90;;;;;;5109063;28;20105;-65
2023/01/30 05:18:39;;;;;;;37.03;8.27;;;6.10;99.90;;;;;;5107921;28;20043;-64
2023/01/30 05:21:17;;;;;;;51.70;7.00;;;6.20;99.90;;;;;;5105831;28;20043;-65
2023/01/30 05:23:42;;;;;;;50.03;7.63;;;6.20;99.90;;;;;;5106814;28;20884;-64
2023/01/30 05:26:10;;;;;;;46.70;8.25;;;6.20;99.90;;;;;;5108305;28;20118;-64
2023/01/30 05:28:35;;;;;;;40.15;7.93;;;6.20;99.90;;;;;;5105163;28;20048;-64
2023/01/30 05:31:05;;;;;;;41.03;7.60;;;6.30;99.90;;;;;;5107755;28;20062;-64
2023/01/30 05:33:31;;;;;;;53.65;7.55;;;6.20;99.90;;;;;;5098801;28;20079;-65
2023/01/30 05:35:58;;;;;;;49.28;8.02;;;6.20;99.90;;;;;;5100305;28;20043;-64
2023/01/30 05:38:25;;;;;;;43.42;6.60;;;6.20;99.90;;;;;;5099653;28;20120;-64
2023/01/30 05:41:02;;;;;;;46.20;6.55;;;6.20;99.90;;;;;;5099035;28;20107;-64
2023/01/30 05:43:29;;;;;;;45.22;8.45;;;6.10;99.90;;;;;;5111028;27;20061;-64
2023/01/30 05:45:56;;;;;;;49.25;8.02;;;6.10;99.90;;;;;;5133998;27;20119;-65
2023/01/30 05:48:23;;;;;;;50.40;8.90;;;6.10;99.90;;;;;;5111051;28;20043;-64
2023/01/30 05:50:54;;;;;;;43.75;6.47;;;6.10;99.90;;;;;;5110998;27;20047;-64
2023/01/30 05:53:21;;;;;;;43.08;6.78;;;6.10;99.90;;;;;;5109335;28;20051;-64
2023/01/30 05:55:55;;;;;;;48.10;7.60;;;6.00;99.90;;;;;;5109919;28;20390;-64
2023/01/30 05:58:20;;;;;;;46.67;7.93;;;5.90;99.90;;;;;;5110684;27;20392;-64
2023/01/30 06:00:46;;;;;;;37.25;6.80;;;6.00;99.90;;;;;;5110752;28;20035;-64
2023/01/30 06:03:12;;;;;;;36.58;6.65;;;6.00;99.90;;;;;;5111039;27;20032;-65
2023/01/30 06:05:37;;;;;;;47.72;5.97;;;6.00;99.90;;;;;;5111051;28;20031;-64
2023/01/30 06:08:04;;;;;;;45.00;8.48;;;6.00;99.90;;;;;;5110105;27;20058;-65
2023/01/30 06:10:30;;;;;;;32.55;5.93;;;5.90;99.90;;;;;;5096845;28;20071;-64
2023/01/30 06:12:55;;;;;;;40.72;8.48;;;5.90;99.90;;;;;;5109028;28;20074;-64
2023/01/30 06:15:22;;;;;;;55.53;8.20;;;5.90;99.90;;;;;;5110694;28;20050;-64
2023/01/30 06:17:48;;;;;;;47.92;8.65;;;5.90;99.90;;;;;;5108210;28;20104;-64
2023/01/30 06:20:14;;;;;;;49.88;8.63;;;5.90;99.90;;;;;;5096472;27;20048;-64
2023/01/30 06:22:40;;;;;;;46.97;8.68;;;6.00;99.90;;;;;;5103656;28;20117;-64
2023/01/30 06:25:06;;;;;;;56.50;9.88;;;6.10;99.90;;;;;;5087910;28;20421;-65
2023/01/30 06:27:31;;;;;;;55.80;9.57;;;6.10;99.90;;;;;;5090052;28;20050;-64
2023/01/30 06:29:57;;;;;;;45.33;9.05;;;6.10;99.90;;;;;;5094908;27;20048;-64
2023/01/30 06:32:23;;;;;;;52.30;8.80;;;6.10;99.90;;;;;;5091211;28;20044;-64
2023/01/30 06:34:48;;;;;;;43.42;8.32;;;6.10;99.90;;;;;;5088601;28;20133;-64
2023/01/30 06:37:14;;;;;;;36.05;4.80;;;6.10;99.90;;;;;;5088913;28;20052;-64
2023/01/30 06:39:40;;;;;;;28.42;4.28;;;6.00;99.90;;;;;;5092091;27;20055;-64
2023/01/30 06:42:06;;;;;;;42.95;8.13;;;6.00;99.90;;;;;;5126078;27;20569;-64
2023/01/30 06:44:32;;;;;;;58.78;8.60;;;6.00;99.90;;;;;;5102926;27;20170;-64
2023/01/30 06:46:57;;;;;;;32.35;4.95;;;5.90;99.90;;;;;;5132229;27;20107;-64
2023/01/30 06:49:24;;;;;;;42.42;7.05;;;5.80;99.90;;;;;;5093471;28;20126;-64
2023/01/30 06:51:50;;;;;;;42.67;7.30;;;5.80;99.90;;;;;;5089981;28;20056;-64
2023/01/30 06:54:15;;;;;;;54.00;8.55;;;5.80;99.90;;;;;;5088134;28;20489;-64
2023/01/30 06:56:41;;;;;;;48.38;9.93;;;5.80;99.90;;;;;;5089500;28;20050;-64
2023/01/30 06:59:07;;;;;;;28.80;5.95;;;5.90;99.90;;;;;;5086802;28;20055;-64
2023/01/30 07:01:33;;;;;;;40.97;8.30;;;5.90;99.90;;;;;;5106342;27;20039;-64
2023/01/30 07:03:59;;;;;;;41.47;8.82;;;5.90;99.90;;;;;;5113609;27;20624;-64
2023/01/30 07:06:27;;;;;;;45.22;7.40;;;5.90;99.90;;;;;;5093452;28;20054;-64
2023/01/30 07:08:55;;;;;;;44.38;7.93;;;6.00;99.90;;;;;;5088758;28;20126;-64
2023/01/30 07:11:21;;;;;;;40.00;7.45;;;6.00;99.90;;;;;;5095224;28;20069;-64
2023/01/30 07:13:47;;;;;;;52.65;8.73;;;5.90;99.90;;;;;;5109282;28;20491;-64
2023/01/30 07:16:12;;;;;;;42.90;7.80;;;5.90;99.90;;;;;;5108156;27;20512;-64
2023/01/30 07:18:38;;;;;;;44.83;7.57;;;6.00;99.90;;;;;;5109694;28;20035;-64
2023/01/30 07:21:05;;;;;;;38.92;6.93;;;6.00;99.90;;;;;;5105820;27;20138;-64
2023/01/30 07:23:30;;;;;;;49.22;9.15;;;6.00;99.90;;;;;;5114345;27;20034;-64
2023/01/30 07:25:56;;;;;;;42.72;8.18;;;6.00;99.90;;;;;;5107980;28;20047;-64
2023/01/30 07:28:22;;;;;;;36.35;6.00;;;6.00;99.90;;;;;;5092796;28;20043;-64
2023/01/30 07:30:51;;;;;;;34.00;6.30;;;6.00;99.90;;;;;;5108316;28;20109;-64
2023/01/30 07:33:17;;;;;;;30.92;5.90;;;6.10;99.90;;;;;;5101648;28;20141;-64
2023/01/30 07:35:43;;;;;;;33.38;6.35;;;6.10;99.90;;;;;;5100883;27;20071;-64
2023/01/30 07:38:09;;;;;;;44.67;8.25;;;6.20;99.90;;;;;;5115138;27;20525;-64
2023/01/30 07:40:34;;;;;;;43.60;7.35;;;6.10;99.90;;;;;;5108910;28;20504;-64
2023/01/30 07:43:06;;;;;;;46.97;8.32;;;6.10;99.90;;;;;;5106494;28;20051;-64
2023/01/30 07:45:39;;;;;;;52.22;10.00;;;6.10;99.90;;;;;;5096819;27;21004;-64
2023/01/30 07:48:06;;;;;;;50.63;7.25;;;6.10;99.90;;;;;;5109971;27;20055;-64
2023/01/30 07:50:32;;;;;;;54.83;9.10;;;6.20;99.90;;;;;;5108212;28;20035;-64
2023/01/30 07:52:57;;;;;;;44.35;8.95;;;6.20;99.90;;;;;;5108862;28;20168;-64
2023/01/30 07:55:23;;;;;;;58.95;9.57;;;6.10;99.90;;;;;;5107664;28;20110;-64
2023/01/30 07:57:49;;;;;;;42.90;7.40;;;6.20;99.90;;;;;;5109948;27;20051;-64
2023/01/30 08:00:15;;;;;;;43.17;6.88;;;6.20;99.90;;;;;;5106842;28;20510;-64
2023/01/30 08:02:41;;;;;;;48.67;7.40;;;6.20;99.90;;;;;;5095586;28;20039;-64
2023/01/30 08:05:07;;;;;;;38.03;6.85;;;6.20;99.90;;;;;;5122815;27;20044;-64
2023/01/30 08:07:33;;;;;;;39.75;7.43;;;6.20;99.90;;;;;;5089642;27;20048;-64
2023/01/30 08:09:59;;;;;;;44.03;7.32;;;6.20;99.90;;;;;;5097808;27;20054;-64
2023/01/30 08:12:25;;;;;;;53.83;8.50;;;6.20;99.90;;;;;;5097932;28;20319;-64
2023/01/30 08:14:50;;;;;;;37.95;6.65;;;6.20;99.90;;;;;;5087737;28;20052;-64
2023/01/30 08:17:16;;;;;;;41.05;7.50;;;6.20;99.90;;;;;;5088865;28;20051;-64
2023/01/30 08:19:42;;;;;;;36.53;7.07;;;6.30;99.90;;;;;;5092722;27;20045;-64
2023/01/30 08:22:08;;;;;;;33.88;6.68;;;6.30;99.90;;;;;;5093886;28;20094;-64
2023/01/30 08:24:33;;;;;;;34.15;7.13;;;6.30;99.90;;;;;;5112737;27;20079;-64
2023/01/30 08:26:59;;;;;;;52.33;10.70;;;6.40;99.90;;;;;;5087232;28;20405;-64
2023/01/30 08:29:25;;;;;;;44.92;8.15;;;6.40;99.90;;;;;;5092935;28;20079;-64
2023/01/30 08:31:55;;;;;;;41.72;7.85;;;6.50;99.90;;;;;;5087415;28;20056;-64
2023/01/30 08:34:21;;;;;;;51.28;8.70;;;6.50;99.90;;;;;;5086852;28;20044;-64
2023/01/30 08:36:48;;;;;;;47.08;10.05;;;6.50;99.90;;;;;;5087398;28;20099;-64
2023/01/30 08:39:13;;;;;;;43.78;7.43;;;6.50;99.90;;;;;;5089840;28;20044;-64
2023/01/30 08:41:41;;;;;;;48.28;8.35;;;6.50;99.90;;;;;;5105508;27;20051;-64
2023/01/30 08:44:08;;;;;;;35.83;6.45;;;6.50;99.90;;;;;;5086913;28;20133;-65
2023/01/30 08:46:34;;;;;;;45.08;8.43;;;6.50;99.90;;;;;;5102716;28;20082;-64
2023/01/30 08:49:00;;;;;;;43.17;9.70;;;6.50;99.90;;;;;;5086897;28;20087;-64
2023/01/30 08:51:25;;;;;;;40.08;9.25;;;6.60;99.90;;;;;;5090384;28;20145;-64
2023/01/30 08:53:51;;;;;;;20.10;4.03;;;6.60;99.90;;;;;;5086065;28;20097;-64
2023/01/30 08:56:17;;;;;;;43.17;7.63;;;6.70;99.90;;;;;;5118524;27;20048;-64
2023/01/30 08:58:45;;;;;;;52.42;9.48;;;6.70;99.90;;;;;;5085793;28;20440;-64
2023/01/30 09:01:11;;;;;;;37.42;8.85;;;6.80;99.90;;;;;;5095573;28;20046;-64
2023/01/30 09:03:39;;;;;;;42.38;7.90;;;6.80;99.90;;;;;;5093403;27;20047;-64
2023/01/30 09:06:05;;;;;;;52.72;9.30;;;6.80;99.90;;;;;;5092669;28;20477;-64
2023/01/30 09:08:31;;;;;;;34.40;7.00;;;6.80;99.90;;;;;;5101811;28;20127;-64
2023/01/30 09:11:02;;;;;;;32.30;7.28;;;6.80;99.90;;;;;;5101098;28;20040;-64
2023/01/30 09:13:29;;;;;;;13.85;3.17;;;6.80;99.90;;;;;;5106694;28;20077;-64
2023/01/30 09:15:56;;;;;;;29.48;5.28;;;6.80;99.90;;;;;;5102808;28;20130;-64
2023/01/30 09:18:22;;;;;;;39.75;8.30;;;6.90;99.90;;;;;;5106797;28;20436;-64
2023/01/30 09:20:48;;;;;;;47.65;9.13;;;6.90;99.90;;;;;;5107762;28;20051;-64
2023/01/30 09:23:14;;;;;;;49.60;8.73;;;6.90;99.90;;;;;;5107178;27;20040;-64
2023/01/30 09:25:40;;;;;;;24.35;5.10;;;6.80;99.90;;;;;;5098841;28;20497;-65
2023/01/30 09:28:07;;;;;;;46.92;10.20;;;6.70;99.90;;;;;;5106901;28;20059;-64
2023/01/30 09:30:33;;;;;;;58.67;10.10;;;6.70;99.90;;;;;;5106163;28;20097;-64
2023/01/30 09:32:58;;;;;;;48.60;10.80;;;6.80;99.90;;;;;;5103977;27;20064;-64
2023/01/30 09:35:24;;;;;;;42.78;9.43;;;6.80;99.90;;;;;;5096892;28;20050;-64
2023/01/30 09:37:52;;;;;;;58.95;11.30;;;6.80;99.90;;;;;;5104853;28;20083;-64
2023/01/30 09:40:28;;;;;;;47.42;8.45;;;6.80;99.90;;;;;;5107582;28;20036;-65
2023/01/30 09:42:53;;;;;;;53.70;9.60;;;6.80;99.90;;;;;;5108534;28;20039;-64
2023/01/30 09:45:29;;;;;;;52.10;8.80;;;6.90;99.90;;;;;;5106890;27;20040;-64
2023/01/30 09:48:34;;;;;;;35.05;6.38;;;7.00;99.90;;;;;;5102685;28;20044;-64
2023/01/30 09:51:05;;;;;;;48.80;9.60;;;7.10;99.90;;;;;;5075249;28;20069;-64
2023/01/30 09:53:36;;;;;;;61.90;12.13;;;7.10;99.90;;;;;;5105626;27;20089;-64
2023/01/30 09:56:02;;;;;;;52.63;12.35;;;7.00;99.90;;;;;;5098393;28;20221;-64
2023/01/30 09:58:58;;;;;;;48.28;10.25;;;6.90;99.90;;;;;;5103742;28;20046;-64
2023/01/30 10:01:49;;;;;;;53.60;10.20;;;7.00;99.90;;;;;;5081597;28;20082;-64
2023/01/30 10:04:23;;;;;;;66.00;12.35;;;7.00;99.90;;;;;;5091005;27;20424;-64
2023/01/30 10:06:58;;;;;;;55.28;12.10;;;6.90;99.90;;;;;;5094178;28;20040;-64
2023/01/30 10:09:37;;;;;;;61.15;11.80;;;6.80;99.90;;;;;;5091209;28;20048;-64
2023/01/30 10:12:20;;;;;;;50.92;11.20;;;6.80;99.90;;;;;;5102644;28;20062;-64
2023/01/30 10:15:08;;;;;;;53.05;11.88;;;6.80;99.90;;;;;;5088503;28;20461;-64
2023/01/30 10:18:22;;;;;;;47.65;7.53;;;6.90;99.90;;;;;;5104526;28;20448;-64
2023/01/30 10:21:21;;;;;;;54.22;12.68;;;6.90;99.90;;;;;;5062112;28;20121;-64
2023/01/30 10:23:59;;;;;;;54.78;13.75;;;7.00;99.90;;;;;;5090220;27;20093;-64
2023/01/30 10:26:27;;;;;;;49.42;10.20;;;7.00;99.90;;;;;;5107254;27;20039;-64
2023/01/30 10:29:04;;;;;;;69.63;13.63;;;7.20;99.90;;;;;;5106077;28;20043;-64
2023/01/30 10:31:51;;;;;;;62.92;12.77;;;7.20;99.90;;;;;;5106626;28;20060;-64
2023/01/30 10:34:44;;;;;;;44.15;10.90;;;7.30;99.90;;;;;;5106680;27;20082;-65
2023/01/30 10:37:29;;;;;;;52.58;11.70;;;7.30;99.90;;;;;;5098496;28;20054;-64
2023/01/30 10:40:36;;;;;;;53.42;11.15;;;7.00;99.90;;;;;;5089076;28;20162;-64
2023/01/30 10:43:17;;;;;;;40.13;10.30;;;7.00;99.90;;;;;;5087632;28;20604;-64
2023/01/30 10:46:19;;;;;;;41.95;9.75;;;7.00;99.90;;;;;;5096021;27;20040;-65
2023/01/30 10:49:01;;;;;;;39.22;10.30;;;7.00;99.90;;;;;;5087463;28;20069;-64
2023/01/30 10:51:54;;;;;;;44.10;8.00;;;7.10;99.90;;;;;;5088494;28;20078;-64
2023/01/30 10:54:41;;;;;;;40.65;8.43;;;7.10;99.90;;;;;;5092871;27;20067;-64
2023/01/30 10:57:18;;;;;;;33.63;7.68;;;7.20;99.90;;;;;;5087473;27;20040;-64
2023/01/30 10:59:53;;;;;;;32.80;7.40;;;7.20;99.90;;;;;;5087801;28;20048;-64
2023/01/30 11:02:32;;;;;;;30.17;7.72;;;7.20;99.90;;;;;;5092637;28;20036;-64
2023/01/30 11:05:19;;;;;;;33.50;6.03;;;7.20;99.90;;;;;;5093827;27;20073;-64
2023/01/30 11:07:47;;;;;;;26.92;6.82;;;7.10;99.90;;;;;;5095285;28;20388;-64
2023/01/30 11:10:25;;;;;;;35.47;7.05;;;7.10;99.90;;;;;;5120042;27;20079;-64
2023/01/30 11:13:12;;;;;;;28.73;5.43;;;7.10;99.90;;;;;;5107578;28;20446;-64
2023/01/30 11:15:43;;;;;;;32.53;7.65;;;7.10;99.90;;;;;;5108301;27;20056;-64
2023/01/30 11:18:11;;;;;;;36.25;8.65;;;7.20;99.90;;;;;;5102459;28;20120;-64
2023/01/30 11:20:42;;;;;;;30.98;7.65;;;7.30;99.90;;;;;;5108121;28;20040;-64
2023/01/30 11:23:24;;;;;;;37.72;7.95;;;7.40;99.90;;;;;;5106060;28;20053;-64
2023/01/30 11:25:54;;;;;;;41.78;9.93;;;7.50;99.90;;;;;;5109615;27;20066;-64
2023/01/30 11:28:20;;;;;;;;;;;7.60;99.90;;;;;;5089405;27;20402;-64
2023/01/30 11:30:55;;;;;;;48.75;9.35;;;7.50;99.90;;;;;;5094697;27;19924;-64
2023/01/30 11:33:29;;;;;;;45.22;9.02;;;7.30;99.90;;;;;;5102564;28;20481;-64
2023/01/30 11:35:58;;;;;;;46.20;9.75;;;7.30;99.90;;;;;;5103338;28;20039;-64
2023/01/30 11:38:27;;;;;;;41.63;8.50;;;7.20;99.90;;;;;;5104142;28;20446;-64
2023/01/30 11:41:24;;;;;;;41.05;9.05;;;7.20;99.90;;;;;;5106314;27;20566;-64
2023/01/30 11:44:02;;;;;;;41.55;7.80;;;7.20;99.90;;;;;;5096871;28;20487;-64
2023/01/30 11:46:33;;;;;;;41.13;8.77;;;7.30;99.90;;;;;;5105541;28;20086;-64
2023/01/30 11:49:09;;;;;;;31.33;7.85;;;7.30;99.90;;;;;;5106824;28;20055;-64
2023/01/30 11:51:38;;;;;;;35.85;9.73;;;7.30;99.90;;;;;;5104470;27;20051;-64
2023/01/30 11:54:13;;;;;;;41.15;11.30;;;7.40;99.90;;;;;;5104743;28;20046;-64
2023/01/30 11:56:53;;;;;;;34.20;8.77;;;7.30;99.90;;;;;;5102552;28;20039;-64
2023/01/30 11:59:38;;;;;;;47.75;9.68;;;7.30;99.90;;;;;;5105460;28;20464;-64
2023/01/30 12:02:11;;;;;;;41.00;9.93;;;7.40;99.90;;;;;;5105031;27;20047;-64
2023/01/30 12:04:37;;;;;;;43.70;11.90;;;7.50;99.90;;;;;;5094244;28;20449;-64
2023/01/30 12:07:20;;;;;;;48.55;9.52;;;7.50;99.90;;;;;;5084872;28;20040;-64
2023/01/30 12:09:49;;;;;;;44.45;11.25;;;7.50;99.90;;;;;;5086410;28;20490;-64
2023/01/30 12:12:34;;;;;;;54.22;12.32;;;7.50;99.90;;;;;;5102852;27;20037;-64
2023/01/30 12:15:17;;;;;;;44.90;9.80;;;7.50;99.90;;;;;;5110254;27;20472;-64
2023/01/30 12:18:11;;;;;;;36.70;10.20;;;7.60;99.90;;;;;;5107393;28;20047;-64
2023/01/30 12:20:42;;;;;;;36.15;10.32;;;7.70;99.90;;;;;;5106756;28;20044;-64
2023/01/30 12:23:24;;;;;;;59.38;10.15;;;7.60;99.90;;;;;;5100821;28;20035;-64
2023/01/30 12:26:13;;;;;;;52.53;11.90;;;7.60;99.90;;;;;;5106241;28;20043;-64
2023/01/30 12:28:52;;;;;;;34.70;9.75;;;7.60;99.90;;;;;;5073383;28;20043;-64
2023/01/30 12:31:24;;;;;;;44.83;9.87;;;7.60;99.90;;;;;;5101112;27;20134;-64
2023/01/30 12:33:53;;;;;;;47.00;9.52;;;7.60;99.90;;;;;;5104749;28;20119;-65
2023/01/30 12:36:30;;;;;;;39.47;9.57;;;7.70;99.90;;;;;;5102045;28;20136;-64
2023/01/30 12:39:13;;;;;;;37.40;8.85;;;7.70;99.90;;;;;;5104159;28;20464;-64
2023/01/30 12:41:45;;;;;;;43.08;9.32;;;7.70;99.90;;;;;;5102786;27;20401;-64
2023/01/30 12:44:33;;;;;;;39.72;7.82;;;7.80;99.90;;;;;;5096349;27;20044;-64
2023/01/30 12:46:58;;;;;;;45.45;9.30;;;7.80;99.90;;;;;;5102251;28;20564;-64
2023/01/30 12:49:57;;;;;;;48.47;10.15;;;7.80;99.90;;;;;;5103267;28;20035;-64
2023/01/30 12:52:32;;;;;;;52.55;9.35;;;7.90;99.90;;;;;;5102351;27;20093;-64
2023/01/30 12:55:31;;;;;;;39.60;9.07;;;8.00;99.90;;;;;;5101967;28;20044;-64
2023/01/30 12:58:26;;;;;;;52.00;11.30;;;8.10;99.90;;;;;;5117632;27;20055;-64
2023/01/30 13:01:03;;;;;;;54.15;10.57;;;8.10;99.90;;;;;;5102558;28;20731;-64
2023/01/30 13:04:03;;;;;;;53.22;10.70;;;8.00;99.90;;;;;;5103146;28;20046;-64
2023/01/30 13:07:00;;;;;;;44.92;11.32;;;7.90;99.90;;;;;;5102590;28;20447;-64
2023/01/30 13:09:57;;;;;;;50.28;10.77;;;7.80;99.90;;;;;;5102492;28;20078;-64
2023/01/30 13:12:44;;;;;;;49.03;12.57;;;7.80;99.90;;;;;;5102632;28;20078;-64
2023/01/30 13:15:25;;;;;;;59.25;11.45;;;7.70;99.90;;;;;;5104953;28;20525;-64
2023/01/30 13:18:13;;;;;;;56.13;13.48;;;7.70;99.90;;;;;;5103145;28;20048;-64